createdAt,value
2023-03-04T00:00:29.708Z,38.97
2023-03-04T00:02:57.156Z,38.50
2023-03-04T00:05:24.709Z,38.70
2023-03-04T00:07:52.154Z,39.20
2023-03-04T00:10:19.614Z,37.67
2023-03-04T00:12:47.040Z,46.57
2023-03-04T00:15:15.814Z,36.70
2023-03-04T00:17:43.289Z,59.13
2023-03-04T00:20:11.806Z,46.90
2023-03-04T00:22:39.265Z,40.07
2023-03-04T00:25:07.665Z,51.70
2023-03-04T00:27:35.195Z,43.93
2023-03-04T00:30:02.785Z,35.23
2023-03-04T00:32:31.549Z,34.27
2023-03-04T00:34:59.043Z,33.77
2023-03-04T00:37:26.459Z,38.07
2023-03-04T00:39:53.896Z,34.93
2023-03-04T00:42:21.324Z,33.17
2023-03-04T00:44:49.598Z,32.13
2023-03-04T00:47:17.024Z,32.53
2023-03-04T00:49:45.853Z,34.47
2023-03-04T00:52:13.308Z,36.37
2023-03-04T00:54:40.796Z,31.13
2023-03-04T00:57:08.638Z,32.20
2023-03-04T00:59:36.107Z,37.83
2023-03-04T01:02:03.883Z,29.13
2023-03-04T01:04:31.354Z,31.47
2023-03-04T01:07:00.115Z,28.80
2023-03-04T01:09:27.756Z,34.77
2023-03-04T01:11:55.189Z,24.73
2023-03-04T01:14:22.597Z,29.13
2023-03-04T01:16:50.557Z,31.67
2023-03-04T01:19:18.246Z,23.47
2023-03-04T01:21:45.727Z,30.70
2023-03-04T01:24:14.484Z,26.27
2023-03-04T01:26:42.047Z,29.47
2023-03-04T01:29:09.475Z,23.37
2023-03-04T01:31:37.065Z,24.90
2023-03-04T01:34:04.606Z,21.90
2023-03-04T01:36:32.042Z,25.40
2023-03-04T01:38:59.587Z,25.80
2023-03-04T01:41:29.243Z,26.20
2023-03-04T01:43:57.929Z,22.03
2023-03-04T01:46:25.751Z,21.87
2023-03-04T01:48:53.701Z,25.40
2023-03-04T01:51:22.628Z,25.90
2023-03-04T01:53:53.261Z,20.63
2023-03-04T01:56:24.868Z,23.50
2023-03-04T01:59:10.294Z,20.47
2023-03-04T02:01:39.409Z,25.57
2023-03-04T02:04:08.614Z,26.60
2023-03-04T02:06:36.337Z,18.17
2023-03-04T02:09:05.340Z,24.10
2023-03-04T02:11:33.609Z,17.33
2023-03-04T02:14:01.230Z,21.70
2023-03-04T02:16:30.084Z,17.83
2023-03-04T02:18:57.586Z,22.20
2023-03-04T02:21:29.110Z,20.67
2023-03-04T02:24:04.256Z,19.33
2023-03-04T02:26:35.022Z,22.73
2023-03-04T02:29:04.667Z,20.07
2023-03-04T02:31:34.594Z,22.73
2023-03-04T02:34:04.659Z,17.00
2023-03-04T02:36:33.438Z,22.67
2023-03-04T02:39:04.592Z,17.60
2023-03-04T02:41:34.389Z,18.53
2023-03-04T02:44:01.792Z,18.67
2023-03-04T02:46:29.210Z,18.70
2023-03-04T02:48:56.663Z,26.20
2023-03-04T02:51:24.161Z,20.70
2023-03-04T02:53:51.595Z,16.80
2023-03-04T02:56:19.076Z,18.53
2023-03-04T02:58:47.796Z,20.20
2023-03-04T03:01:15.253Z,22.07
2023-03-04T03:03:42.784Z,20.57
2023-03-04T03:06:10.573Z,20.43
2023-03-04T03:08:38.070Z,18.73
2023-03-04T03:11:06.855Z,24.87
2023-03-04T03:13:35.776Z,19.13
2023-03-04T03:16:04.948Z,19.30
2023-03-04T03:18:32.584Z,18.07
2023-03-04T03:21:00.018Z,17.13
2023-03-04T03:23:27.427Z,18.23
2023-03-04T03:25:54.850Z,21.70
2023-03-04T03:28:22.284Z,25.93
2023-03-04T03:30:49.690Z,14.87
2023-03-04T03:33:18.469Z,26.83
2023-03-04T03:35:45.959Z,20.57
2023-03-04T03:38:13.383Z,23.50
2023-03-04T03:40:40.862Z,14.20
2023-03-04T03:43:08.438Z,14.77
2023-03-04T03:45:35.984Z,18.43
2023-03-04T03:48:03.470Z,19.03
2023-03-04T03:50:33.292Z,18.50
2023-03-04T03:53:00.753Z,21.00
2023-03-04T03:55:28.341Z,21.67
2023-03-04T03:57:55.838Z,19.90
2023-03-04T04:00:23.808Z,19.07
2023-03-04T04:02:51.302Z,17.10
2023-03-04T04:05:19.001Z,15.77
2023-03-04T04:07:47.773Z,21.87
2023-03-04T04:10:15.231Z,21.13
2023-03-04T04:12:42.661Z,17.97
2023-03-04T04:15:11.958Z,13.93
2023-03-04T04:17:40.418Z,16.63
2023-03-04T04:20:09.706Z,15.30
2023-03-04T04:22:37.139Z,12.33
2023-03-04T04:25:08.794Z,16.13
2023-03-04T04:27:36.268Z,15.67
2023-03-04T04:30:04.501Z,13.57
2023-03-04T04:32:31.981Z,23.20
2023-03-04T04:34:59.450Z,13.17
2023-03-04T04:37:26.844Z,15.03
2023-03-04T04:39:55.384Z,15.97
2023-03-04T04:42:24.614Z,10.50
2023-03-04T04:44:52.595Z,10.40
2023-03-04T04:47:20.110Z,13.83
2023-03-04T04:49:47.540Z,13.90
2023-03-04T04:52:14.947Z,8.23
2023-03-04T04:54:42.347Z,14.67
2023-03-04T04:57:09.778Z,14.43
2023-03-04T04:59:38.533Z,13.93
2023-03-04T05:02:06.062Z,9.90
2023-03-04T05:04:33.480Z,16.53
2023-03-04T05:07:00.988Z,12.37
2023-03-04T05:09:28.413Z,14.50
2023-03-04T05:11:55.825Z,10.67
2023-03-04T05:14:23.304Z,12.10
2023-03-04T05:16:53.137Z,15.07
2023-03-04T05:19:21.222Z,11.80
2023-03-04T05:21:48.684Z,13.37
2023-03-04T05:24:16.147Z,12.37
2023-03-04T05:26:43.552Z,13.57
2023-03-04T05:29:11.146Z,13.00
2023-03-04T05:31:38.541Z,13.33
2023-03-04T05:34:07.386Z,13.40
2023-03-04T05:36:34.898Z,13.33
2023-03-04T05:39:02.440Z,11.77
2023-03-04T05:41:29.856Z,14.43
2023-03-04T05:43:57.257Z,11.97
2023-03-04T05:46:25.692Z,17.00
2023-03-04T05:48:54.086Z,15.33
2023-03-04T05:51:23.465Z,13.63
2023-03-04T05:53:51.034Z,12.43
2023-03-04T05:56:20.505Z,11.87
2023-03-04T05:58:48.371Z,12.73
2023-03-04T06:01:16.424Z,13.13
2023-03-04T06:03:44.227Z,12.33
2023-03-04T06:06:11.869Z,11.70
2023-03-04T06:08:40.641Z,16.03
2023-03-04T06:11:08.214Z,11.43
2023-03-04T06:13:35.931Z,8.40
2023-03-04T06:16:03.409Z,10.13
2023-03-04T06:18:30.899Z,12.50
2023-03-04T06:20:59.443Z,16.37
2023-03-04T06:23:27.970Z,11.53
2023-03-04T06:25:59.145Z,9.83
2023-03-04T06:28:26.804Z,11.60
2023-03-04T06:30:54.707Z,10.87
2023-03-04T06:33:22.904Z,11.00
2023-03-04T06:35:54.413Z,10.27
2023-03-04T06:38:21.876Z,8.07
2023-03-04T06:40:49.415Z,10.73
2023-03-04T06:43:18.146Z,11.83
2023-03-04T06:45:45.838Z,14.07
2023-03-04T06:48:13.720Z,10.83
2023-03-04T06:50:41.208Z,10.90
2023-03-04T06:53:08.615Z,9.97
2023-03-04T06:55:37.080Z,7.43
2023-03-04T06:58:04.521Z,12.03
2023-03-04T07:00:33.355Z,9.60
2023-03-04T07:03:01.952Z,8.40
2023-03-04T07:05:29.373Z,5.97
2023-03-04T07:07:56.875Z,10.97
2023-03-04T07:10:24.291Z,10.57
2023-03-04T07:12:51.710Z,8.87
2023-03-04T07:15:19.243Z,9.23
2023-03-04T07:17:47.988Z,10.03
2023-03-04T07:20:15.399Z,11.17
2023-03-04T07:22:42.821Z,6.87
2023-03-04T07:25:10.635Z,9.87
2023-03-04T07:27:38.603Z,6.53
2023-03-04T07:30:06.930Z,5.93
2023-03-04T07:32:34.517Z,5.67
2023-03-04T07:35:03.879Z,4.70
2023-03-04T07:37:31.309Z,7.60
2023-03-04T07:39:58.723Z,5.60
2023-03-04T07:42:26.231Z,8.77
2023-03-04T07:44:55.162Z,7.03
2023-03-04T07:47:22.628Z,5.90
2023-03-04T07:49:50.076Z,7.80
2023-03-04T07:52:18.804Z,7.17
2023-03-04T07:54:46.215Z,6.33
2023-03-04T07:57:13.638Z,5.60
2023-03-04T07:59:41.067Z,5.63
2023-03-04T08:02:09.847Z,6.53
2023-03-04T08:04:37.375Z,6.60
2023-03-04T08:07:04.850Z,5.63
2023-03-04T08:09:33.592Z,4.73
2023-03-04T08:12:01.089Z,4.20
2023-03-04T08:14:28.618Z,5.13
2023-03-04T08:16:56.021Z,5.73
2023-03-04T08:19:25.883Z,5.93
2023-03-04T08:21:53.478Z,4.97
2023-03-04T08:24:21.005Z,9.90
2023-03-04T08:26:51.226Z,5.43
2023-03-04T08:29:21.398Z,7.87
2023-03-04T08:31:49.324Z,8.17
2023-03-04T08:34:17.765Z,5.80
2023-03-04T08:36:45.334Z,4.93
2023-03-04T08:39:14.035Z,8.40
2023-03-04T08:41:41.534Z,7.20
2023-03-04T08:44:11.164Z,6.20
2023-03-04T08:46:40.034Z,9.13
2023-03-04T08:49:08.112Z,9.30
2023-03-04T08:51:36.604Z,5.20
2023-03-04T08:54:06.725Z,8.30
2023-03-04T08:56:34.309Z,7.57
2023-03-04T08:59:01.758Z,8.10
2023-03-04T09:01:30.658Z,10.00
2023-03-04T09:03:58.138Z,7.53
2023-03-04T09:06:25.579Z,5.63
2023-03-04T09:08:53.080Z,8.70
2023-03-04T09:11:20.615Z,7.63
2023-03-04T09:13:48.089Z,4.53
2023-03-04T09:16:16.047Z,9.17
2023-03-04T09:18:45.112Z,8.37
2023-03-04T09:21:12.802Z,4.00
2023-03-04T09:23:40.657Z,8.13
2023-03-04T09:26:18.584Z,8.87
2023-03-04T09:28:46.071Z,4.83
2023-03-04T09:31:14.428Z,4.87
2023-03-04T09:33:43.127Z,9.00
2023-03-04T09:36:13.761Z,8.00
2023-03-04T09:38:42.004Z,7.07
2023-03-04T09:41:16.591Z,6.73
2023-03-04T09:43:45.884Z,8.00
2023-03-04T09:46:16.957Z,8.23
2023-03-04T09:48:47.812Z,11.50
2023-03-04T09:51:23.343Z,6.60
2023-03-04T09:54:06.973Z,8.27
2023-03-04T09:56:36.013Z,6.67
2023-03-04T09:59:15.363Z,8.90
2023-03-04T10:01:48.864Z,7.13
2023-03-04T10:04:23.147Z,9.33
2023-03-04T10:06:54.615Z,7.27
2023-03-04T10:09:26.166Z,6.33
2023-03-04T10:12:01.644Z,8.80
2023-03-04T10:14:36.262Z,10.73
2023-03-04T10:17:09.770Z,4.67
2023-03-04T10:19:51.977Z,11.13
2023-03-04T10:22:27.923Z,6.57
2023-03-04T10:24:57.948Z,12.30
2023-03-04T10:27:27.038Z,6.90
2023-03-04T10:29:54.491Z,7.17
2023-03-04T10:32:22.398Z,9.53
2023-03-04T10:34:49.868Z,9.00
2023-03-04T10:37:17.329Z,7.77
2023-03-04T10:39:49.271Z,9.77
2023-03-04T10:42:37.271Z,12.20
2023-03-04T10:45:20.010Z,14.27
2023-03-04T10:47:53.479Z,10.80
2023-03-04T10:50:25.216Z,14.87
2023-03-04T10:52:55.577Z,14.07
2023-03-04T10:55:26.821Z,14.13
2023-03-04T10:57:58.042Z,13.40
2023-03-04T11:00:29.563Z,11.33
2023-03-04T11:03:24.181Z,8.93
2023-03-04T11:05:53.458Z,13.70
2023-03-04T11:08:24.220Z,12.30
2023-03-04T11:10:53.024Z,11.90
2023-03-04T11:13:25.958Z,10.70
2023-03-04T11:15:57.983Z,9.33
2023-03-04T11:18:33.552Z,12.23
2023-03-04T11:21:02.067Z,10.47
2023-03-04T11:23:36.804Z,13.30
2023-03-04T11:26:10.569Z,9.47
2023-03-04T11:28:48.152Z,13.97
2023-03-04T11:31:21.293Z,12.33
2023-03-04T11:33:53.059Z,11.73
2023-03-04T11:36:33.615Z,13.60
2023-03-04T11:39:02.417Z,13.03
2023-03-04T11:41:35.607Z,14.67
2023-03-04T11:44:06.616Z,11.60
2023-03-04T11:46:47.524Z,17.03
2023-03-04T11:49:35.784Z,19.93
2023-03-04T11:52:10.679Z,18.90
2023-03-04T11:54:49.277Z,12.83
2023-03-04T11:57:28.510Z,14.93
2023-03-04T12:00:17.108Z,16.43
2023-03-04T12:02:55.397Z,12.23
2023-03-04T12:05:31.742Z,17.40
2023-03-04T12:08:26.660Z,14.03
2023-03-04T12:11:04.190Z,14.53
2023-03-04T12:14:04.518Z,14.73
2023-03-04T12:16:48.255Z,12.73
2023-03-04T12:19:25.648Z,11.20
2023-03-04T12:22:15.726Z,13.13
2023-03-04T12:25:03.471Z,13.10
2023-03-04T12:27:41.188Z,14.10
2023-03-04T12:30:22.689Z,11.23
2023-03-04T12:32:58.705Z,14.67
2023-03-04T12:35:37.404Z,9.20
2023-03-04T12:38:18.425Z,14.10
2023-03-04T12:40:51.360Z,10.10
2023-03-04T12:43:36.065Z,12.00
2023-03-04T12:46:17.748Z,14.17
2023-03-04T12:48:53.568Z,13.07
2023-03-04T12:51:33.809Z,11.67
2023-03-04T12:54:18.539Z,10.97
2023-03-04T12:56:52.530Z,12.40
2023-03-04T12:59:23.223Z,11.03
2023-03-04T13:02:04.915Z,10.00
2023-03-04T13:04:49.498Z,12.03
2023-03-04T13:07:23.064Z,13.30
2023-03-04T13:09:56.003Z,11.60
2023-03-04T13:12:24.486Z,8.73
2023-03-04T13:15:18.870Z,8.85
2023-03-04T13:17:50.282Z,13.60
2023-03-04T13:20:25.246Z,15.83
2023-03-04T13:22:58.257Z,16.10
2023-03-04T13:25:38.479Z,12.53
2023-03-04T13:28:26.536Z,12.33
2023-03-04T13:31:26.664Z,9.93
2023-03-04T13:33:58.923Z,15.40
2023-03-04T13:36:55.740Z,14.33
2023-03-04T13:39:26.906Z,12.67
2023-03-04T13:41:56.698Z,9.93
2023-03-04T13:44:57.713Z,8.03
2023-03-04T13:47:42.787Z,14.07
2023-03-04T13:50:31.752Z,12.27
2023-03-04T13:53:21.126Z,10.47
2023-03-04T13:56:06.214Z,10.47
2023-03-04T13:58:35.049Z,12.33
2023-03-04T14:01:02.601Z,12.20
2023-03-04T14:03:31.778Z,9.67
2023-03-04T14:06:19.745Z,12.90
2023-03-04T14:08:48.662Z,12.63
2023-03-04T14:11:20.467Z,12.47
2023-03-04T14:13:48.119Z,15.70
2023-03-04T14:16:21.516Z,13.53
2023-03-04T14:18:58.386Z,12.33
2023-03-04T14:21:27.192Z,13.77
2023-03-04T14:24:03.523Z,12.90
2023-03-04T14:26:31.689Z,15.03
2023-03-04T14:28:59.754Z,10.20
2023-03-04T14:31:30.079Z,13.67
2023-03-04T14:34:02.270Z,11.33
2023-03-04T14:36:34.583Z,12.23
2023-03-04T14:39:04.811Z,12.37
2023-03-04T14:41:35.263Z,13.57
2023-03-04T14:44:12.686Z,18.87
2023-03-04T14:46:46.146Z,12.63
2023-03-04T14:49:18.972Z,14.70
2023-03-04T14:51:50.061Z,18.20
2023-03-04T14:54:29.759Z,13.47
2023-03-04T14:56:57.892Z,11.03
2023-03-04T14:59:30.068Z,12.60
2023-03-04T15:02:18.200Z,14.33
2023-03-04T15:04:46.184Z,22.37
2023-03-04T15:07:19.959Z,12.77
2023-03-04T15:09:53.361Z,14.30
2023-03-04T15:12:26.717Z,15.83
2023-03-04T15:14:56.664Z,12.27
2023-03-04T15:17:31.591Z,15.23
2023-03-04T15:20:00.961Z,9.60
2023-03-04T15:22:29.876Z,13.97
2023-03-04T15:24:57.314Z,13.37
2023-03-04T15:27:26.248Z,14.07
2023-03-04T15:29:58.889Z,14.87
2023-03-04T15:32:26.823Z,17.33
2023-03-04T15:34:54.231Z,12.33
2023-03-04T15:37:24.984Z,14.97
2023-03-04T15:39:54.323Z,15.53
2023-03-04T15:42:21.850Z,14.83
2023-03-04T15:44:49.265Z,13.97
2023-03-04T15:47:16.718Z,14.00
2023-03-04T15:49:47.356Z,13.70
2023-03-04T15:52:19.717Z,14.70
2023-03-04T15:54:48.815Z,20.53
2023-03-04T15:57:22.613Z,13.57
2023-03-04T15:59:50.098Z,14.43
2023-03-04T16:02:21.699Z,10.27
2023-03-04T16:04:49.255Z,19.93
2023-03-04T16:07:19.235Z,17.97
2023-03-04T16:09:47.501Z,14.37
2023-03-04T16:12:14.994Z,14.50
2023-03-04T16:14:44.373Z,12.17
2023-03-04T16:17:11.807Z,12.13
2023-03-04T16:19:39.308Z,15.33
2023-03-04T16:22:07.281Z,11.80
2023-03-04T16:24:35.784Z,12.20
2023-03-04T16:27:05.950Z,10.33
2023-03-04T16:29:33.666Z,12.37
2023-03-04T16:32:02.610Z,13.50
2023-03-04T16:34:30.060Z,13.20
2023-03-04T16:36:57.477Z,7.80
2023-03-04T16:39:26.526Z,11.37
2023-03-04T16:41:54.935Z,12.83
2023-03-04T16:44:22.391Z,10.67
2023-03-04T16:46:49.902Z,9.60
2023-03-04T16:49:18.704Z,12.17
2023-03-04T16:51:49.326Z,12.90
2023-03-04T16:54:19.733Z,10.03
2023-03-04T16:56:47.164Z,9.33
2023-03-04T16:59:16.589Z,8.43
2023-03-04T17:01:44.402Z,12.63
2023-03-04T17:04:12.041Z,10.37
2023-03-04T17:06:40.830Z,9.33
2023-03-04T17:09:08.839Z,13.40
2023-03-04T17:11:37.040Z,14.37
2023-03-04T17:14:04.987Z,10.37
2023-03-04T17:16:32.591Z,10.10
2023-03-04T17:19:00.031Z,8.43
2023-03-04T17:21:28.200Z,13.90
2023-03-04T17:23:56.957Z,9.17
2023-03-04T17:26:25.065Z,9.43
2023-03-04T17:28:52.710Z,12.77
2023-03-04T17:31:22.013Z,11.97
2023-03-04T17:33:49.817Z,9.57
2023-03-04T17:36:19.032Z,10.50
2023-03-04T17:38:47.220Z,10.70
2023-03-04T17:41:18.604Z,11.63
2023-03-04T17:43:47.251Z,13.63
2023-03-04T17:46:17.080Z,9.73
2023-03-04T17:48:44.683Z,10.93
2023-03-04T17:51:12.911Z,12.83
2023-03-04T17:53:40.384Z,10.00
2023-03-04T17:56:09.866Z,10.13
2023-03-04T17:58:38.763Z,11.27
2023-03-04T18:01:08.369Z,9.17
2023-03-04T18:03:35.868Z,11.03
2023-03-04T18:06:03.271Z,16.53
2023-03-04T18:08:30.671Z,14.80
2023-03-04T18:10:58.042Z,16.80
2023-03-04T18:13:25.476Z,9.80
2023-03-04T18:15:55.304Z,16.97
2023-03-04T18:18:22.864Z,13.33
2023-03-04T18:20:50.313Z,11.17
2023-03-04T18:23:17.760Z,14.40
2023-03-04T18:25:45.154Z,17.03
2023-03-04T18:28:12.575Z,14.40
2023-03-04T18:30:40.032Z,13.67
2023-03-04T18:33:08.872Z,14.50
2023-03-04T18:35:36.550Z,9.87
2023-03-04T18:38:04.440Z,18.43
2023-03-04T18:40:31.912Z,16.17
2023-03-04T18:43:00.203Z,15.63
2023-03-04T18:45:28.325Z,15.67
2023-03-04T18:47:55.952Z,15.27
2023-03-04T18:50:24.801Z,18.97
2023-03-04T18:52:53.566Z,20.17
2023-03-04T18:55:21.242Z,17.57
2023-03-04T18:57:51.931Z,12.70
2023-03-04T19:00:21.687Z,17.60
2023-03-04T19:02:52.849Z,17.63
2023-03-04T19:05:24.212Z,10.07
2023-03-04T19:07:53.957Z,13.97
2023-03-04T19:10:21.839Z,13.20
2023-03-04T19:12:49.256Z,18.20
2023-03-04T19:15:18.188Z,14.50
2023-03-04T19:17:46.194Z,14.17
2023-03-04T19:20:15.517Z,11.43
2023-03-04T19:22:43.138Z,13.27
2023-03-04T19:25:12.806Z,13.20
2023-03-04T19:27:40.460Z,14.33
2023-03-04T19:30:09.154Z,18.60
2023-03-04T19:32:36.737Z,15.67
2023-03-04T19:35:04.419Z,19.63
2023-03-04T19:37:32.001Z,15.90
2023-03-04T19:39:59.484Z,18.97
2023-03-04T19:42:28.213Z,16.20
2023-03-04T19:44:55.958Z,13.23
2023-03-04T19:47:23.384Z,19.13
2023-03-04T19:49:50.826Z,15.80
2023-03-04T19:52:18.274Z,14.43
2023-03-04T19:54:45.744Z,12.97
2023-03-04T19:57:13.178Z,13.53
2023-03-04T19:59:41.977Z,16.77
2023-03-04T20:02:09.457Z,17.83
2023-03-04T20:04:36.927Z,20.20
2023-03-04T20:07:04.696Z,11.17
2023-03-04T20:09:33.388Z,17.37
2023-03-04T20:12:00.824Z,15.63
2023-03-04T20:14:28.808Z,18.53
2023-03-04T20:17:00.814Z,10.00
2023-03-04T20:19:28.397Z,14.03
2023-03-04T20:21:56.378Z,16.87
2023-03-04T20:24:23.934Z,15.13
2023-03-04T20:26:51.973Z,13.80
2023-03-04T20:29:19.700Z,11.03
2023-03-04T20:31:47.219Z,11.27
2023-03-04T20:34:16.628Z,14.40
2023-03-04T20:36:44.097Z,14.43
2023-03-04T20:39:27.716Z,12.67
2023-03-04T20:41:56.201Z,8.93
2023-03-04T20:44:23.693Z,12.47
2023-03-04T20:46:51.122Z,12.70
2023-03-04T20:49:23.329Z,13.27
2023-03-04T20:51:51.235Z,11.57
2023-03-04T20:54:18.721Z,8.83
2023-03-04T20:56:46.328Z,14.67
2023-03-04T20:59:13.887Z,8.33
2023-03-04T21:01:43.614Z,20.00
2023-03-04T21:04:11.736Z,13.33
2023-03-04T21:06:41.269Z,11.27
2023-03-04T21:09:10.678Z,10.23
2023-03-04T21:11:40.470Z,13.50
2023-03-04T21:14:08.927Z,11.27
2023-03-04T21:16:36.411Z,8.53
2023-03-04T21:19:03.845Z,10.03
2023-03-04T21:21:31.761Z,12.93
2023-03-04T21:24:00.657Z,14.63
2023-03-04T21:26:28.113Z,8.73
2023-03-04T21:28:55.688Z,8.77
2023-03-04T21:31:25.568Z,6.90
2023-03-04T21:33:53.948Z,8.97
2023-03-04T21:36:21.771Z,9.37
2023-03-04T21:38:49.780Z,15.43
2023-03-04T21:41:20.695Z,15.07
2023-03-04T21:43:48.494Z,12.27
2023-03-04T21:46:17.493Z,14.10
2023-03-04T21:48:47.532Z,14.40
2023-03-04T21:51:16.855Z,17.37
2023-03-04T21:53:44.583Z,14.60
2023-03-04T21:56:13.325Z,12.73
2023-03-04T21:58:42.422Z,15.60
2023-03-04T22:01:10.787Z,12.30
2023-03-04T22:03:38.371Z,10.10
2023-03-04T22:06:07.039Z,12.00
2023-03-04T22:08:34.605Z,16.40
2023-03-04T22:11:05.444Z,11.80
2023-03-04T22:13:33.037Z,12.67
2023-03-04T22:16:02.097Z,12.97
2023-03-04T22:18:29.727Z,9.93
2023-03-04T22:21:01.144Z,11.63
2023-03-04T22:23:29.193Z,11.00
2023-03-04T22:25:59.264Z,13.87
2023-03-04T22:28:28.426Z,9.90
2023-03-04T22:30:56.792Z,12.50
2023-03-04T22:33:25.803Z,12.47
2023-03-04T22:35:53.702Z,13.60
2023-03-04T22:38:22.308Z,11.23
2023-03-04T22:40:50.516Z,11.70
2023-03-04T22:43:17.929Z,16.90
2023-03-04T22:45:45.411Z,18.93
2023-03-04T22:48:14.407Z,17.53
2023-03-04T22:50:43.234Z,34.50
2023-03-04T22:53:10.633Z,29.27
2023-03-04T22:55:38.062Z,36.50
2023-03-04T22:58:05.704Z,37.83
2023-03-04T23:00:33.621Z,31.27
2023-03-04T23:03:01.042Z,31.37
2023-03-04T23:05:29.413Z,38.60
2023-03-04T23:07:58.960Z,23.87
2023-03-04T23:10:26.799Z,23.87
2023-03-04T23:12:54.502Z,30.40
2023-03-04T23:15:22.071Z,27.97
2023-03-04T23:17:50.044Z,32.17
2023-03-04T23:20:19.670Z,48.50
2023-03-04T23:22:48.172Z,19.93
2023-03-04T23:25:17.914Z,17.90
2023-03-04T23:27:45.490Z,40.10
2023-03-04T23:30:15.905Z,42.27
2023-03-04T23:32:44.126Z,29.20
2023-03-04T23:35:12.154Z,33.23
2023-03-04T23:37:39.790Z,27.90
2023-03-04T23:40:08.664Z,23.67
2023-03-04T23:42:37.823Z,20.43
2023-03-04T23:45:06.398Z,14.00
2023-03-04T23:47:34.887Z,14.30
2023-03-04T23:50:03.864Z,21.20
2023-03-04T23:52:31.395Z,12.97
2023-03-04T23:54:58.884Z,17.37
2023-03-04T23:57:26.411Z,14.17
2023-03-04T23:59:55.196Z,12.60
